createdAt,value
2023-04-09T00:00:44.972Z,11.21
2023-04-09T00:03:11.906Z,11.23
2023-04-09T00:05:40.987Z,11.25
2023-04-09T00:08:07.996Z,11.12
2023-04-09T00:10:34.889Z,11.18
2023-04-09T00:13:01.610Z,11.15
2023-04-09T00:15:31.625Z,11.11
2023-04-09T00:17:59.525Z,11.06
2023-04-09T00:20:26.421Z,11.11
2023-04-09T00:22:53.292Z,11.09
2023-04-09T00:25:20.218Z,11.12
2023-04-09T00:27:47.122Z,11.13
2023-04-09T00:30:13.995Z,11.12
2023-04-09T00:32:41.132Z,11.07
2023-04-09T00:35:08.652Z,10.95
2023-04-09T00:37:35.403Z,10.97
2023-04-09T00:40:02.295Z,10.92
2023-04-09T00:42:35.050Z,10.94
2023-04-09T00:45:02.287Z,10.97
2023-04-09T00:47:30.564Z,11.04
2023-04-09T00:49:57.908Z,11.01
2023-04-09T00:52:24.845Z,10.94
2023-04-09T00:54:52.124Z,10.97
2023-04-09T00:57:19.743Z,10.76
2023-04-09T00:59:46.841Z,10.69
2023-04-09T01:02:13.728Z,10.76
2023-04-09T01:04:42.076Z,10.72
2023-04-09T01:07:27.896Z,10.66
2023-04-09T01:10:05.584Z,10.70
2023-04-09T01:12:54.711Z,10.75
2023-04-09T01:15:31.310Z,10.76
2023-04-09T01:18:19.278Z,10.71
2023-04-09T01:20:58.164Z,10.76
2023-04-09T01:23:37.522Z,10.75
2023-04-09T01:26:14.624Z,10.81
2023-04-09T01:28:51.086Z,10.80
2023-04-09T01:31:20.647Z,10.78
2023-04-09T01:33:47.930Z,10.60
2023-04-09T01:36:15.474Z,10.39
2023-04-09T01:38:44.491Z,10.43
2023-04-09T01:41:17.100Z,10.47
2023-04-09T01:43:45.566Z,10.50
2023-04-09T01:46:13.545Z,10.56
2023-04-09T01:48:41.086Z,10.54
2023-04-09T01:51:07.845Z,10.51
2023-04-09T01:53:34.702Z,10.51
2023-04-09T01:56:01.975Z,10.55
2023-04-09T01:58:28.875Z,10.62
2023-04-09T02:01:21.036Z,10.65
2023-04-09T02:03:54.410Z,10.76
2023-04-09T02:06:46.926Z,10.81
2023-04-09T02:09:17.139Z,10.82
2023-04-09T02:11:47.676Z,10.76
2023-04-09T02:14:15.981Z,10.65
2023-04-09T02:16:43.028Z,10.51
2023-04-09T02:19:11.101Z,10.50
2023-04-09T02:21:37.994Z,10.55
2023-04-09T02:24:05.042Z,10.59
2023-04-09T02:26:31.717Z,10.65
2023-04-09T02:28:59.246Z,10.67
2023-04-09T02:31:25.980Z,10.79
2023-04-09T02:33:54.238Z,10.70
2023-04-09T02:36:21.083Z,10.69
2023-04-09T02:38:47.799Z,10.71
2023-04-09T02:41:14.579Z,10.73
2023-04-09T02:43:41.333Z,10.66
2023-04-09T02:46:08.692Z,10.70
2023-04-09T02:48:36.577Z,10.75
2023-04-09T02:51:06.337Z,10.71
2023-04-09T02:53:33.225Z,10.74
2023-04-09T02:55:59.956Z,10.73
2023-04-09T02:58:26.743Z,10.73
2023-04-09T03:00:53.493Z,10.76
2023-04-09T03:03:20.489Z,10.76
2023-04-09T03:05:47.215Z,10.71
2023-04-09T03:08:14.263Z,10.72
2023-04-09T03:10:40.943Z,10.72
2023-04-09T03:13:07.748Z,10.71
2023-04-09T03:15:34.498Z,10.64
2023-04-09T03:18:01.310Z,10.51
2023-04-09T03:20:27.960Z,10.35
2023-04-09T03:22:54.773Z,10.40
2023-04-09T03:25:36.540Z,10.39
2023-04-09T03:28:11.399Z,10.38
2023-04-09T03:30:44.890Z,10.40
2023-04-09T03:33:12.342Z,10.35
2023-04-09T03:35:54.497Z,10.43
2023-04-09T03:38:40.798Z,10.43
2023-04-09T03:41:16.155Z,10.31
2023-04-09T03:43:42.903Z,10.18
2023-04-09T03:46:13.387Z,10.11
2023-04-09T03:48:41.658Z,10.08
2023-04-09T03:51:13.337Z,10.15
2023-04-09T03:53:44.667Z,10.19
2023-04-09T03:56:11.474Z,10.19
2023-04-09T03:58:38.768Z,10.19
2023-04-09T04:01:07.414Z,10.14
2023-04-09T04:03:42.202Z,10.09
2023-04-09T04:06:14.364Z,9.94
2023-04-09T04:08:49.740Z,9.64
2023-04-09T04:11:19.271Z,9.55
2023-04-09T04:13:46.892Z,9.58
2023-04-09T04:16:13.652Z,9.76
2023-04-09T04:18:41.348Z,9.80
2023-04-09T04:21:16.376Z,9.76
2023-04-09T04:23:47.544Z,9.80
2023-04-09T04:26:18.886Z,9.84
2023-04-09T04:28:46.371Z,9.67
2023-04-09T04:31:24.260Z,9.53
2023-04-09T04:33:52.560Z,9.46
2023-04-09T04:36:19.271Z,9.49
2023-04-09T04:38:48.710Z,9.50
2023-04-09T04:41:23.347Z,9.48
2023-04-09T04:43:57.647Z,9.44
2023-04-09T04:46:25.630Z,9.48
2023-04-09T04:48:52.703Z,9.52
2023-04-09T04:51:21.648Z,9.57
2023-04-09T04:54:00.160Z,9.44
2023-04-09T04:56:28.016Z,9.29
2023-04-09T04:59:14.995Z,9.14
2023-04-09T05:01:57.738Z,9.18
2023-04-09T05:04:25.755Z,9.14
2023-04-09T05:06:52.571Z,9.07
2023-04-09T05:09:22.572Z,9.12
2023-04-09T05:12:06.003Z,9.20
2023-04-09T05:14:32.971Z,9.25
2023-04-09T05:16:59.793Z,9.29
2023-04-09T05:19:34.203Z,9.31
2023-04-09T05:22:02.828Z,9.11
2023-04-09T05:24:29.764Z,9.09
2023-04-09T05:26:56.579Z,8.98
2023-04-09T05:29:23.858Z,8.90
2023-04-09T05:31:50.587Z,8.93
2023-04-09T05:34:31.770Z,9.03
2023-04-09T05:36:59.485Z,9.08
2023-04-09T05:39:26.703Z,8.91
2023-04-09T05:41:53.765Z,8.85
2023-04-09T05:44:33.826Z,8.91
2023-04-09T05:47:06.195Z,9.03
2023-04-09T05:49:42.490Z,9.09
2023-04-09T05:52:16.900Z,9.08
2023-04-09T05:54:44.118Z,9.11
2023-04-09T05:57:12.071Z,9.14
2023-04-09T05:59:42.705Z,9.21
2023-04-09T06:02:09.598Z,9.31
2023-04-09T06:04:36.446Z,9.40
2023-04-09T06:07:03.381Z,9.52
2023-04-09T06:09:30.092Z,9.61
2023-04-09T06:11:57.868Z,9.68
2023-04-09T06:14:24.796Z,9.77
2023-04-09T06:16:51.555Z,9.81
2023-04-09T06:19:18.775Z,9.89
2023-04-09T06:21:45.694Z,9.96
2023-04-09T06:24:12.764Z,10.01
2023-04-09T06:26:39.626Z,10.10
2023-04-09T06:29:06.538Z,10.17
2023-04-09T06:31:33.611Z,10.28
2023-04-09T06:34:00.623Z,10.37
2023-04-09T06:36:27.905Z,10.42
2023-04-09T06:38:54.741Z,10.49
2023-04-09T06:41:22.634Z,10.60
2023-04-09T06:43:49.870Z,10.73
2023-04-09T06:46:20.139Z,10.87
2023-04-09T06:48:47.335Z,11.01
2023-04-09T06:51:15.053Z,11.13
2023-04-09T06:53:42.412Z,11.21
2023-04-09T06:56:09.301Z,11.24
2023-04-09T06:58:36.339Z,11.31
2023-04-09T07:01:03.299Z,11.32
2023-04-09T07:03:30.410Z,11.36
2023-04-09T07:05:57.814Z,11.42
2023-04-09T07:08:25.130Z,11.44
2023-04-09T07:10:51.989Z,11.55
2023-04-09T07:13:18.780Z,11.63
2023-04-09T07:15:45.790Z,11.68
2023-04-09T07:18:12.548Z,11.73
2023-04-09T07:20:39.416Z,11.77
2023-04-09T07:23:06.161Z,11.79
2023-04-09T07:25:32.963Z,11.88
2023-04-09T07:27:59.874Z,12.02
2023-04-09T07:30:27.464Z,12.16
2023-04-09T07:32:54.410Z,12.20
2023-04-09T07:35:21.815Z,12.20
2023-04-09T07:37:48.695Z,12.19
2023-04-09T07:40:15.442Z,12.33
2023-04-09T07:42:42.597Z,12.35
2023-04-09T07:45:09.617Z,12.42
2023-04-09T07:47:37.082Z,12.48
2023-04-09T07:50:04.206Z,12.61
2023-04-09T07:52:31.042Z,12.69
2023-04-09T07:54:57.991Z,12.70
2023-04-09T07:57:24.931Z,12.71
2023-04-09T07:59:53.509Z,12.71
2023-04-09T08:02:20.423Z,12.68
2023-04-09T08:04:47.476Z,12.77
2023-04-09T08:07:14.374Z,12.87
2023-04-09T08:09:41.135Z,13.02
2023-04-09T08:12:08.154Z,13.18
2023-04-09T08:14:34.932Z,13.33
2023-04-09T08:17:01.750Z,13.39
2023-04-09T08:19:28.544Z,13.45
2023-04-09T08:21:55.495Z,13.59
2023-04-09T08:24:22.539Z,13.52
2023-04-09T08:26:49.270Z,13.49
2023-04-09T08:29:16.179Z,13.53
2023-04-09T08:31:43.320Z,13.61
2023-04-09T08:34:10.136Z,13.71
2023-04-09T08:36:37.143Z,13.81
2023-04-09T08:39:04.236Z,13.74
2023-04-09T08:41:31.459Z,13.69
2023-04-09T08:43:59.901Z,13.66
2023-04-09T08:46:27.936Z,13.57
2023-04-09T08:48:55.352Z,13.55
2023-04-09T08:51:23.717Z,13.43
2023-04-09T08:53:57.220Z,13.42
2023-04-09T08:56:24.730Z,13.47
2023-04-09T08:58:56.395Z,13.42
2023-04-09T09:01:23.984Z,13.30
2023-04-09T09:04:05.026Z,13.21
2023-04-09T09:06:34.299Z,13.32
2023-04-09T09:09:20.573Z,13.36
2023-04-09T09:11:50.395Z,13.27
2023-04-09T09:14:19.422Z,13.35
2023-04-09T09:16:58.446Z,13.46
2023-04-09T09:19:25.430Z,13.38
2023-04-09T09:22:03.057Z,13.38
2023-04-09T09:24:32.764Z,13.40
2023-04-09T09:26:59.855Z,13.33
2023-04-09T09:29:28.176Z,13.34
2023-04-09T09:31:56.423Z,13.32
2023-04-09T09:34:25.624Z,13.27
2023-04-09T09:36:52.347Z,13.32
2023-04-09T09:39:19.253Z,13.41
2023-04-09T09:41:47.346Z,13.35
2023-04-09T09:44:31.913Z,13.27
2023-04-09T09:46:59.588Z,13.29
2023-04-09T09:49:26.730Z,13.32
2023-04-09T09:51:56.997Z,13.30
2023-04-09T09:54:25.672Z,13.30
2023-04-09T09:56:55.836Z,13.32
2023-04-09T09:59:32.188Z,13.39
2023-04-09T10:02:06.295Z,13.39
2023-04-09T10:04:38.286Z,13.36
2023-04-09T10:07:07.249Z,13.39
2023-04-09T10:09:35.952Z,13.41
2023-04-09T10:12:05.099Z,13.41
2023-04-09T10:14:32.036Z,13.52
2023-04-09T10:16:58.954Z,13.50
2023-04-09T10:19:25.760Z,13.48
2023-04-09T10:21:59.310Z,13.48
2023-04-09T10:24:26.182Z,13.60
2023-04-09T10:27:16.653Z,13.63
2023-04-09T10:29:46.285Z,13.60
2023-04-09T10:32:17.704Z,13.62
2023-04-09T10:34:45.167Z,13.60
2023-04-09T10:37:24.258Z,13.75
2023-04-09T10:39:53.642Z,13.85
2023-04-09T10:42:24.852Z,13.93
2023-04-09T10:45:12.403Z,13.94
2023-04-09T10:47:40.891Z,14.09
2023-04-09T10:50:27.930Z,14.34
2023-04-09T10:53:00.305Z,14.49
2023-04-09T10:55:54.082Z,14.66
2023-04-09T10:58:21.289Z,14.76
2023-04-09T11:00:49.665Z,14.86
2023-04-09T11:03:25.732Z,14.88
2023-04-09T11:06:02.806Z,14.87
2023-04-09T11:08:32.077Z,14.76
2023-04-09T11:11:01.170Z,14.64
2023-04-09T11:13:29.500Z,14.77
2023-04-09T11:15:56.921Z,14.98
2023-04-09T11:18:28.339Z,15.06
2023-04-09T11:21:04.580Z,14.91
2023-04-09T11:23:33.006Z,15.00
2023-04-09T11:25:59.841Z,15.03
2023-04-09T11:28:27.751Z,15.11
2023-04-09T11:30:54.596Z,15.15
2023-04-09T11:33:21.696Z,15.15
2023-04-09T11:35:48.940Z,15.04
2023-04-09T11:38:16.259Z,14.97
2023-04-09T11:40:48.704Z,15.07
2023-04-09T11:43:16.825Z,15.00
2023-04-09T11:45:44.331Z,15.01
2023-04-09T11:48:11.718Z,15.04
2023-04-09T11:50:38.671Z,15.09
2023-04-09T11:53:18.501Z,15.29
2023-04-09T11:55:47.924Z,15.38
2023-04-09T11:58:14.865Z,15.53
2023-04-09T12:00:41.814Z,15.50
2023-04-09T12:03:10.770Z,15.42
2023-04-09T12:05:40.629Z,15.44
2023-04-09T12:08:08.918Z,15.69
2023-04-09T12:10:38.172Z,15.81
2023-04-09T12:13:11.080Z,15.95
2023-04-09T12:15:41.195Z,16.07
2023-04-09T12:18:09.706Z,15.84
2023-04-09T12:20:42.315Z,15.92
2023-04-09T12:23:10.574Z,16.08
2023-04-09T12:25:41.704Z,16.16
2023-04-09T12:28:11.645Z,16.15
2023-04-09T12:30:38.579Z,16.11
2023-04-09T12:33:05.952Z,16.08
2023-04-09T12:35:34.620Z,16.00
2023-04-09T12:38:01.828Z,15.82
2023-04-09T12:40:29.152Z,15.52
2023-04-09T12:42:56.234Z,15.70
2023-04-09T12:45:25.433Z,15.86
2023-04-09T12:47:52.945Z,16.00
2023-04-09T12:50:20.293Z,16.14
2023-04-09T12:52:47.384Z,16.11
2023-04-09T12:55:15.074Z,16.12
2023-04-09T12:57:47.269Z,16.12
2023-04-09T13:00:14.671Z,15.93
2023-04-09T13:02:42.291Z,15.83
2023-04-09T13:05:12.743Z,15.87
2023-04-09T13:07:40.884Z,15.98
2023-04-09T13:10:09.986Z,16.15
2023-04-09T13:12:36.728Z,16.11
2023-04-09T13:15:03.764Z,15.89
2023-04-09T13:17:30.861Z,16.09
2023-04-09T13:19:57.683Z,16.07
2023-04-09T13:22:24.398Z,15.92
2023-04-09T13:24:51.383Z,16.17
2023-04-09T13:27:18.095Z,16.23
2023-04-09T13:29:45.085Z,16.13
2023-04-09T13:32:11.973Z,16.10
2023-04-09T13:34:39.894Z,15.97
2023-04-09T13:37:07.094Z,15.75
2023-04-09T13:39:34.080Z,15.60
2023-04-09T13:42:07.236Z,15.63
2023-04-09T13:44:37.155Z,15.57
2023-04-09T13:47:03.941Z,15.67
2023-04-09T13:49:33.656Z,15.87
2023-04-09T13:52:01.182Z,15.94
2023-04-09T13:54:27.958Z,16.03
2023-04-09T13:56:54.948Z,15.83
2023-04-09T13:59:25.437Z,15.91
2023-04-09T14:01:52.333Z,15.99
2023-04-09T14:04:20.079Z,16.14
2023-04-09T14:06:49.440Z,16.27
2023-04-09T14:09:19.190Z,16.21
2023-04-09T14:11:46.026Z,16.18
2023-04-09T14:14:13.106Z,16.27
2023-04-09T14:16:41.858Z,16.32
2023-04-09T14:19:10.441Z,16.23
2023-04-09T14:24:31.781Z,16.41
2023-04-09T14:27:03.165Z,16.39
2023-04-09T14:29:31.382Z,16.32
2023-04-09T14:31:58.217Z,16.25
2023-04-09T14:34:25.234Z,16.33
2023-04-09T14:36:52.305Z,16.37
2023-04-09T14:39:19.318Z,16.48
2023-04-09T14:41:46.234Z,16.42
2023-04-09T14:44:13.033Z,16.35
2023-04-09T14:46:43.620Z,16.29
2023-04-09T14:49:10.564Z,16.33
2023-04-09T14:51:39.610Z,16.35
2023-04-09T14:54:13.015Z,16.46
2023-04-09T14:56:40.079Z,16.49
2023-04-09T14:59:10.033Z,16.55
2023-04-09T15:01:37.012Z,16.37
2023-04-09T15:04:06.014Z,16.28
2023-04-09T15:06:43.313Z,16.38
2023-04-09T15:09:10.292Z,16.04
2023-04-09T15:11:37.082Z,15.99
2023-04-09T15:14:03.895Z,15.99
2023-04-09T15:16:33.503Z,16.01
2023-04-09T15:19:00.570Z,15.99
2023-04-09T15:21:31.761Z,16.15
2023-04-09T15:23:59.143Z,16.17
2023-04-09T15:26:30.358Z,16.09
2023-04-09T15:29:07.832Z,16.11
2023-04-09T15:31:34.985Z,15.91
2023-04-09T15:34:01.804Z,15.81
2023-04-09T15:36:33.539Z,15.80
2023-04-09T15:39:06.744Z,15.71
2023-04-09T15:41:33.949Z,15.88
2023-04-09T15:44:01.008Z,16.02
2023-04-09T15:46:28.012Z,15.93
2023-04-09T15:48:57.474Z,15.87
2023-04-09T15:51:24.860Z,15.65
2023-04-09T15:53:53.524Z,15.64
2023-04-09T15:56:26.557Z,15.65
2023-04-09T15:58:53.750Z,15.66
2023-04-09T16:01:26.338Z,15.54
2023-04-09T16:03:53.639Z,15.78
2023-04-09T16:06:23.871Z,15.84
2023-04-09T16:08:54.631Z,15.73
2023-04-09T16:11:21.675Z,15.48
2023-04-09T16:13:48.705Z,15.31
2023-04-09T16:16:15.499Z,15.28
2023-04-09T16:18:43.752Z,15.32
2023-04-09T16:21:10.682Z,15.53
2023-04-09T16:23:38.821Z,15.60
2023-04-09T16:26:06.195Z,15.61
2023-04-09T16:28:33.065Z,15.58
2023-04-09T16:30:59.996Z,15.62
2023-04-09T16:33:26.904Z,15.57
2023-04-09T16:35:53.744Z,15.60
2023-04-09T16:38:20.877Z,15.56
2023-04-09T16:40:48.067Z,15.32
2023-04-09T16:43:14.798Z,15.08
2023-04-09T16:45:41.570Z,15.04
2023-04-09T16:48:12.453Z,14.94
2023-04-09T16:50:40.481Z,14.96
2023-04-09T16:53:07.740Z,14.91
2023-04-09T16:55:37.889Z,14.92
2023-04-09T16:58:12.499Z,14.86
2023-04-09T17:00:47.403Z,14.69
2023-04-09T17:03:19.992Z,14.68
2023-04-09T17:06:02.198Z,14.71
2023-04-09T17:08:37.912Z,14.86
2023-04-09T17:11:07.464Z,14.80
2023-04-09T17:13:36.004Z,14.55
2023-04-09T17:16:03.806Z,14.57
2023-04-09T17:18:30.614Z,14.57
2023-04-09T17:20:57.622Z,14.58
2023-04-09T17:23:24.494Z,14.37
2023-04-09T17:25:51.375Z,14.36
2023-04-09T17:28:19.003Z,14.24
2023-04-09T17:30:45.989Z,14.28
2023-04-09T17:33:12.928Z,14.15
2023-04-09T17:35:39.966Z,14.17
2023-04-09T17:38:06.712Z,14.16
2023-04-09T17:40:33.566Z,14.15
2023-04-09T17:43:00.410Z,14.18
2023-04-09T17:45:27.538Z,14.14
2023-04-09T17:47:54.451Z,14.08
2023-04-09T17:50:21.436Z,14.07
2023-04-09T17:52:48.379Z,14.05
2023-04-09T17:55:15.490Z,14.04
2023-04-09T17:57:42.950Z,13.98
2023-04-09T18:00:11.194Z,13.84
2023-04-09T18:02:46.008Z,13.89
2023-04-09T18:05:13.427Z,13.76
2023-04-09T18:07:40.271Z,13.75
2023-04-09T18:10:07.453Z,13.66
2023-04-09T18:12:34.323Z,13.66
2023-04-09T18:15:01.492Z,13.59
2023-04-09T18:17:28.321Z,13.55
2023-04-09T18:19:55.366Z,13.44
2023-04-09T18:22:22.742Z,13.32
2023-04-09T18:24:50.952Z,13.42
2023-04-09T18:27:18.246Z,13.39
2023-04-09T18:29:45.111Z,13.38
2023-04-09T18:32:12.901Z,13.39
2023-04-09T18:34:39.732Z,13.35
2023-04-09T18:37:06.540Z,13.31
2023-04-09T18:39:34.730Z,13.19
2023-04-09T18:42:02.855Z,13.07
2023-04-09T18:44:29.967Z,13.02
2023-04-09T18:46:56.877Z,12.96
2023-04-09T18:49:23.817Z,12.82
2023-04-09T18:51:50.571Z,12.63
2023-04-09T18:54:17.428Z,12.60
2023-04-09T18:56:46.586Z,12.57
2023-04-09T18:59:13.650Z,12.56
2023-04-09T19:01:40.582Z,12.63
2023-04-09T19:04:07.540Z,12.59
2023-04-09T19:06:36.288Z,12.60
2023-04-09T19:09:04.668Z,12.66
2023-04-09T19:11:31.416Z,12.49
2023-04-09T19:13:58.497Z,12.65
2023-04-09T19:16:25.335Z,12.60
2023-04-09T19:18:52.471Z,12.48
2023-04-09T19:21:19.536Z,12.60
2023-04-09T19:23:46.894Z,12.62
2023-04-09T19:26:14.259Z,12.62
2023-04-09T19:28:41.043Z,12.53
2023-04-09T19:31:08.152Z,12.51
2023-04-09T19:33:35.154Z,12.55
2023-04-09T19:36:02.226Z,12.48
2023-04-09T19:38:29.089Z,12.52
2023-04-09T19:40:55.908Z,12.39
2023-04-09T19:43:23.067Z,12.41
2023-04-09T19:45:49.925Z,12.50
2023-04-09T19:48:17.068Z,12.46
2023-04-09T19:50:45.429Z,12.50
2023-04-09T19:53:12.307Z,12.54
2023-04-09T19:55:39.220Z,12.48
2023-04-09T19:58:06.960Z,12.48
2023-04-09T20:00:34.493Z,12.37
2023-04-09T20:03:01.731Z,12.37
2023-04-09T20:05:29.533Z,12.38
2023-04-09T20:07:56.541Z,12.25
2023-04-09T20:10:23.525Z,12.13
2023-04-09T20:12:51.381Z,12.12
2023-04-09T20:15:20.254Z,12.11
2023-04-09T20:17:51.402Z,12.10
2023-04-09T20:20:19.931Z,12.00
2023-04-09T20:22:55.513Z,12.03
2023-04-09T20:25:24.434Z,12.05
2023-04-09T20:27:54.688Z,12.07
2023-04-09T20:30:21.599Z,12.12
2023-04-09T20:32:49.229Z,12.15
2023-04-09T20:35:16.531Z,12.26
2023-04-09T20:37:43.500Z,12.26
2023-04-09T20:40:12.062Z,12.23
2023-04-09T20:42:41.351Z,12.29
2023-04-09T20:45:09.693Z,12.32
2023-04-09T20:47:37.005Z,12.38
2023-04-09T20:50:04.217Z,12.36
2023-04-09T20:52:31.594Z,12.34
2023-04-09T20:54:58.931Z,12.35
2023-04-09T20:57:25.960Z,12.39
2023-04-09T20:59:55.780Z,12.20
2023-04-09T21:02:23.752Z,12.25
2023-04-09T21:04:50.877Z,12.22
2023-04-09T21:07:17.839Z,12.37
2023-04-09T21:09:45.597Z,12.34
2023-04-09T21:12:12.520Z,12.31
2023-04-09T21:14:39.491Z,12.34
2023-04-09T21:17:06.538Z,12.28
2023-04-09T21:19:33.565Z,12.17
2023-04-09T21:22:00.807Z,12.06
2023-04-09T21:24:28.104Z,12.11
2023-04-09T21:26:55.572Z,12.15
2023-04-09T21:29:22.541Z,12.22
2023-04-09T21:31:50.059Z,12.22
2023-04-09T21:34:17.011Z,12.21
2023-04-09T21:36:45.587Z,12.21
2023-04-09T21:39:13.360Z,12.20
2023-04-09T21:41:58.409Z,12.22
2023-04-09T21:44:26.476Z,12.03
2023-04-09T21:46:53.457Z,11.95
2023-04-09T21:49:20.320Z,12.03
2023-04-09T21:51:47.242Z,11.96
2023-04-09T21:54:17.309Z,11.86
2023-04-09T21:56:46.449Z,11.73
2023-04-09T21:59:13.421Z,11.73
2023-04-09T22:01:40.532Z,11.73
2023-04-09T22:04:07.502Z,11.68
2023-04-09T22:06:34.717Z,11.68
2023-04-09T22:09:02.148Z,11.66
2023-04-09T22:11:30.709Z,11.60
2023-04-09T22:13:57.917Z,11.62
2023-04-09T22:16:25.666Z,11.73
2023-04-09T22:19:02.648Z,11.70
2023-04-09T22:25:07.047Z,11.40
2023-04-09T22:27:34.427Z,11.44
2023-04-09T22:30:01.644Z,11.44
2023-04-09T22:32:29.020Z,11.61
2023-04-09T22:34:56.074Z,11.66
2023-04-09T22:39:49.974Z,11.52
2023-04-09T22:42:16.974Z,11.66
2023-04-09T22:44:43.817Z,11.64
2023-04-09T22:47:11.125Z,11.39
2023-04-09T22:49:38.793Z,11.41
2023-04-09T22:52:05.886Z,11.39
2023-04-09T22:54:32.708Z,11.26
2023-04-09T22:56:59.586Z,11.30
2023-04-09T22:59:39.075Z,11.44
2023-04-09T23:02:06.537Z,11.37
2023-04-09T23:04:35.005Z,11.32
2023-04-09T23:07:02.569Z,11.35
2023-04-09T23:09:31.055Z,11.20
2023-04-09T23:11:58.065Z,10.97
2023-04-09T23:14:25.208Z,11.02
2023-04-09T23:16:52.088Z,11.03
2023-04-09T23:19:19.016Z,11.06
2023-04-09T23:21:46.066Z,11.20
2023-04-09T23:24:13.003Z,10.96
2023-04-09T23:26:43.274Z,10.72
2023-04-09T23:29:10.375Z,10.73
2023-04-09T23:31:40.848Z,10.93
2023-04-09T23:34:13.141Z,11.04
2023-04-09T23:36:40.184Z,11.05
2023-04-09T23:39:07.163Z,11.06
2023-04-09T23:41:34.046Z,11.17
2023-04-09T23:44:01.312Z,11.13
2023-04-09T23:46:28.719Z,11.22
2023-04-09T23:48:55.792Z,11.13
2023-04-09T23:53:08.899Z,11.32
